sensor_id;sensor_type;location;lat;lon;timestamp;P1;durP1;ratioP1;P2;durP2;ratioP2
51558;SDS011;61650;48.882;2.092;2023-01-26T00:00:49;52.92;;;23.92;;
51558;SDS011;61650;48.882;2.092;2023-01-26T00:03:15;53.40;;;25.75;;
51558;SDS011;61650;48.882;2.092;2023-01-26T00:05:41;61.70;;;27.23;;
51558;SDS011;61650;48.882;2.092;2023-01-26T00:08:07;51.87;;;25.03;;
51558;SDS011;61650;48.882;2.092;2023-01-26T00:10:37;61.50;;;26.48;;
51558;SDS011;61650;48.882;2.092;2023-01-26T00:13:04;55.13;;;23.65;;
51558;SDS011;61650;48.882;2.092;2023-01-26T00:15:32;54.80;;;25.35;;
51558;SDS011;61650;48.882;2.092;2023-01-26T00:17:58;51.58;;;25.05;;
51558;SDS011;61650;48.882;2.092;2023-01-26T00:20:25;58.15;;;27.10;;
51558;SDS011;61650;48.882;2.092;2023-01-26T00:22:51;54.47;;;24.63;;
51558;SDS011;61650;48.882;2.092;2023-01-26T00:25:17;59.50;;;27.10;;
51558;SDS011;61650;48.882;2.092;2023-01-26T00:27:42;57.60;;;24.90;;
51558;SDS011;61650;48.882;2.092;2023-01-26T00:30:08;62.40;;;26.57;;
51558;SDS011;61650;48.882;2.092;2023-01-26T00:32:34;53.43;;;24.37;;
51558;SDS011;61650;48.882;2.092;2023-01-26T00:35:00;53.65;;;25.67;;
51558;SDS011;61650;48.882;2.092;2023-01-26T00:37:26;56.47;;;26.35;;
51558;SDS011;61650;48.882;2.092;2023-01-26T00:39:51;50.37;;;24.13;;
51558;SDS011;61650;48.882;2.092;2023-01-26T00:42:17;55.33;;;25.37;;
51558;SDS011;61650;48.882;2.092;2023-01-26T00:44:43;56.60;;;28.60;;
51558;SDS011;61650;48.882;2.092;2023-01-26T00:47:09;54.30;;;24.27;;
51558;SDS011;61650;48.882;2.092;2023-01-26T00:49:36;46.45;;;22.05;;
51558;SDS011;61650;48.882;2.092;2023-01-26T00:52:02;49.93;;;23.50;;
51558;SDS011;61650;48.882;2.092;2023-01-26T00:54:29;51.67;;;24.00;;
51558;SDS011;61650;48.882;2.092;2023-01-26T00:56:54;58.40;;;25.80;;
51558;SDS011;61650;48.882;2.092;2023-01-26T00:59:20;55.53;;;25.27;;
51558;SDS011;61650;48.882;2.092;2023-01-26T01:01:46;53.10;;;23.83;;
51558;SDS011;61650;48.882;2.092;2023-01-26T01:04:13;59.95;;;25.67;;
51558;SDS011;61650;48.882;2.092;2023-01-26T01:06:39;57.97;;;23.73;;
51558;SDS011;61650;48.882;2.092;2023-01-26T01:09:04;60.50;;;23.80;;
51558;SDS011;61650;48.882;2.092;2023-01-26T01:11:30;56.20;;;24.10;;
51558;SDS011;61650;48.882;2.092;2023-01-26T01:13:56;49.17;;;22.60;;
51558;SDS011;61650;48.882;2.092;2023-01-26T01:16:21;51.47;;;25.43;;
51558;SDS011;61650;48.882;2.092;2023-01-26T01:18:48;57.20;;;25.33;;
51558;SDS011;61650;48.882;2.092;2023-01-26T01:21:17;52.67;;;24.15;;
51558;SDS011;61650;48.882;2.092;2023-01-26T01:23:43;54.93;;;24.47;;
51558;SDS011;61650;48.882;2.092;2023-01-26T01:26:08;61.53;;;26.17;;
51558;SDS011;61650;48.882;2.092;2023-01-26T01:28:34;56.40;;;24.67;;
51558;SDS011;61650;48.882;2.092;2023-01-26T01:31:04;56.33;;;23.58;;
51558;SDS011;61650;48.882;2.092;2023-01-26T01:33:31;55.80;;;23.17;;
51558;SDS011;61650;48.882;2.092;2023-01-26T01:36:00;56.80;;;24.40;;
51558;SDS011;61650;48.882;2.092;2023-01-26T01:38:27;63.63;;;25.15;;
51558;SDS011;61650;48.882;2.092;2023-01-26T01:40:53;53.93;;;23.53;;
51558;SDS011;61650;48.882;2.092;2023-01-26T01:43:20;57.83;;;25.80;;
51558;SDS011;61650;48.882;2.092;2023-01-26T01:45:46;57.88;;;25.40;;
51558;SDS011;61650;48.882;2.092;2023-01-26T01:50:49;58.17;;;24.05;;
51558;SDS011;61650;48.882;2.092;2023-01-26T01:53:21;55.80;;;24.25;;
51558;SDS011;61650;48.882;2.092;2023-01-26T01:55:56;56.80;;;24.35;;
51558;SDS011;61650;48.882;2.092;2023-01-26T01:58:24;58.67;;;25.02;;
51558;SDS011;61650;48.882;2.092;2023-01-26T02:00:54;53.05;;;22.70;;
51558;SDS011;61650;48.882;2.092;2023-01-26T02:03:20;51.63;;;24.38;;
51558;SDS011;61650;48.882;2.092;2023-01-26T02:08:21;51.58;;;22.58;;
51558;SDS011;61650;48.882;2.092;2023-01-26T02:10:51;54.38;;;24.30;;
51558;SDS011;61650;48.882;2.092;2023-01-26T02:13:19;58.50;;;25.23;;
51558;SDS011;61650;48.882;2.092;2023-01-26T02:15:47;59.28;;;26.55;;
51558;SDS011;61650;48.882;2.092;2023-01-26T02:18:15;58.78;;;23.48;;
51558;SDS011;61650;48.882;2.092;2023-01-26T02:20:52;64.32;;;25.65;;
51558;SDS011;61650;48.882;2.092;2023-01-26T02:26:15;53.58;;;23.90;;
51558;SDS011;61650;48.882;2.092;2023-01-26T02:28:43;53.08;;;23.90;;
51558;SDS011;61650;48.882;2.092;2023-01-26T02:31:11;51.78;;;21.88;;
51558;SDS011;61650;48.882;2.092;2023-01-26T02:33:37;55.30;;;24.25;;
51558;SDS011;61650;48.882;2.092;2023-01-26T02:36:03;52.42;;;22.42;;
51558;SDS011;61650;48.882;2.092;2023-01-26T02:38:32;50.08;;;23.58;;
51558;SDS011;61650;48.882;2.092;2023-01-26T02:41:08;46.22;;;22.65;;
51558;SDS011;61650;48.882;2.092;2023-01-26T02:43:36;45.50;;;22.05;;
51558;SDS011;61650;48.882;2.092;2023-01-26T02:46:02;55.38;;;22.52;;
51558;SDS011;61650;48.882;2.092;2023-01-26T02:48:28;59.13;;;23.37;;
51558;SDS011;61650;48.882;2.092;2023-01-26T02:51:13;54.40;;;22.95;;
51558;SDS011;61650;48.882;2.092;2023-01-26T02:53:38;47.17;;;22.37;;
51558;SDS011;61650;48.882;2.092;2023-01-26T02:56:04;50.70;;;21.93;;
51558;SDS011;61650;48.882;2.092;2023-01-26T02:58:30;52.57;;;22.07;;
51558;SDS011;61650;48.882;2.092;2023-01-26T03:00:55;45.63;;;22.97;;
51558;SDS011;61650;48.882;2.092;2023-01-26T03:03:25;53.53;;;20.90;;
51558;SDS011;61650;48.882;2.092;2023-01-26T03:06:06;45.08;;;21.75;;
51558;SDS011;61650;48.882;2.092;2023-01-26T03:08:34;46.00;;;21.60;;
51558;SDS011;61650;48.882;2.092;2023-01-26T03:10:59;49.17;;;21.80;;
51558;SDS011;61650;48.882;2.092;2023-01-26T03:13:25;42.27;;;19.57;;
51558;SDS011;61650;48.882;2.092;2023-01-26T03:15:51;42.50;;;21.67;;
51558;SDS011;61650;48.882;2.092;2023-01-26T03:18:19;47.78;;;20.73;;
51558;SDS011;61650;48.882;2.092;2023-01-26T03:21:06;46.13;;;19.15;;
51558;SDS011;61650;48.882;2.092;2023-01-26T03:23:56;43.88;;;21.15;;
51558;SDS011;61650;48.882;2.092;2023-01-26T03:26:40;42.88;;;19.52;;
51558;SDS011;61650;48.882;2.092;2023-01-26T03:29:24;39.20;;;18.00;;
51558;SDS011;61650;48.882;2.092;2023-01-26T03:31:51;49.50;;;19.70;;
51558;SDS011;61650;48.882;2.092;2023-01-26T03:34:17;45.00;;;20.38;;
51558;SDS011;61650;48.882;2.092;2023-01-26T03:36:42;41.23;;;19.90;;
51558;SDS011;61650;48.882;2.092;2023-01-26T03:39:08;40.90;;;20.03;;
51558;SDS011;61650;48.882;2.092;2023-01-26T03:41:54;41.10;;;18.40;;
51558;SDS011;61650;48.882;2.092;2023-01-26T03:44:38;49.38;;;19.67;;
51558;SDS011;61650;48.882;2.092;2023-01-26T03:47:22;41.75;;;19.63;;
51558;SDS011;61650;48.882;2.092;2023-01-26T03:50:06;37.58;;;18.80;;
51558;SDS011;61650;48.882;2.092;2023-01-26T03:52:50;44.60;;;19.20;;
51558;SDS011;61650;48.882;2.092;2023-01-26T03:55:35;43.92;;;19.17;;
51558;SDS011;61650;48.882;2.092;2023-01-26T03:58:19;41.80;;;18.42;;
51558;SDS011;61650;48.882;2.092;2023-01-26T04:00:46;33.80;;;18.30;;
51558;SDS011;61650;48.882;2.092;2023-01-26T04:03:13;35.22;;;17.42;;
51558;SDS011;61650;48.882;2.092;2023-01-26T04:05:58;35.95;;;19.10;;
51558;SDS011;61650;48.882;2.092;2023-01-26T04:08:42;35.35;;;16.80;;
51558;SDS011;61650;48.882;2.092;2023-01-26T04:11:08;34.42;;;16.33;;
51558;SDS011;61650;48.882;2.092;2023-01-26T04:13:34;37.43;;;18.23;;
51558;SDS011;61650;48.882;2.092;2023-01-26T04:16:18;38.53;;;17.50;;
51558;SDS011;61650;48.882;2.092;2023-01-26T04:19:02;31.00;;;15.00;;
51558;SDS011;61650;48.882;2.092;2023-01-26T04:21:46;33.17;;;16.90;;
51558;SDS011;61650;48.882;2.092;2023-01-26T04:24:12;36.23;;;16.90;;
51558;SDS011;61650;48.882;2.092;2023-01-26T04:26:41;39.05;;;18.52;;
51558;SDS011;61650;48.882;2.092;2023-01-26T04:29:09;44.40;;;18.65;;
51558;SDS011;61650;48.882;2.092;2023-01-26T04:31:36;37.22;;;18.05;;
51558;SDS011;61650;48.882;2.092;2023-01-26T04:34:03;37.65;;;17.92;;
51558;SDS011;61650;48.882;2.092;2023-01-26T04:36:29;36.85;;;17.60;;
51558;SDS011;61650;48.882;2.092;2023-01-26T04:38:55;38.67;;;18.35;;
51558;SDS011;61650;48.882;2.092;2023-01-26T04:41:21;36.80;;;17.70;;
51558;SDS011;61650;48.882;2.092;2023-01-26T04:43:47;35.95;;;17.17;;
51558;SDS011;61650;48.882;2.092;2023-01-26T04:46:13;43.63;;;19.03;;
51558;SDS011;61650;48.882;2.092;2023-01-26T04:48:39;43.43;;;19.07;;
51558;SDS011;61650;48.882;2.092;2023-01-26T04:51:06;38.67;;;18.37;;
51558;SDS011;61650;48.882;2.092;2023-01-26T04:53:34;40.83;;;19.15;;
51558;SDS011;61650;48.882;2.092;2023-01-26T04:55:59;36.03;;;17.17;;
51558;SDS011;61650;48.882;2.092;2023-01-26T04:58:25;41.63;;;18.57;;
51558;SDS011;61650;48.882;2.092;2023-01-26T05:00:51;40.97;;;17.70;;
51558;SDS011;61650;48.882;2.092;2023-01-26T05:03:22;38.28;;;16.20;;
51558;SDS011;61650;48.882;2.092;2023-01-26T05:05:49;38.20;;;16.40;;
51558;SDS011;61650;48.882;2.092;2023-01-26T05:08:19;37.28;;;17.60;;
51558;SDS011;61650;48.882;2.092;2023-01-26T05:10:45;39.95;;;18.50;;
51558;SDS011;61650;48.882;2.092;2023-01-26T05:13:11;38.23;;;17.00;;
51558;SDS011;61650;48.882;2.092;2023-01-26T05:15:37;38.92;;;17.63;;
51558;SDS011;61650;48.882;2.092;2023-01-26T05:18:03;37.43;;;18.23;;
51558;SDS011;61650;48.882;2.092;2023-01-26T05:20:30;42.35;;;17.20;;
51558;SDS011;61650;48.882;2.092;2023-01-26T05:22:56;34.30;;;18.30;;
51558;SDS011;61650;48.882;2.092;2023-01-26T05:25:21;37.87;;;18.27;;
51558;SDS011;61650;48.882;2.092;2023-01-26T05:27:48;40.33;;;18.52;;
51558;SDS011;61650;48.882;2.092;2023-01-26T05:30:13;39.30;;;18.83;;
51558;SDS011;61650;48.882;2.092;2023-01-26T05:32:39;37.77;;;17.37;;
51558;SDS011;61650;48.882;2.092;2023-01-26T05:35:05;39.70;;;18.10;;
51558;SDS011;61650;48.882;2.092;2023-01-26T05:37:32;37.20;;;17.48;;
51558;SDS011;61650;48.882;2.092;2023-01-26T05:39:57;40.97;;;18.23;;
51558;SDS011;61650;48.882;2.092;2023-01-26T05:42:24;43.30;;;18.60;;
51558;SDS011;61650;48.882;2.092;2023-01-26T05:44:49;39.72;;;18.38;;
51558;SDS011;61650;48.882;2.092;2023-01-26T05:47:15;35.60;;;16.07;;
51558;SDS011;61650;48.882;2.092;2023-01-26T05:49:41;36.17;;;18.42;;
51558;SDS011;61650;48.882;2.092;2023-01-26T05:52:10;35.50;;;15.55;;
51558;SDS011;61650;48.882;2.092;2023-01-26T05:54:40;41.47;;;18.02;;
51558;SDS011;61650;48.882;2.092;2023-01-26T05:57:06;38.33;;;17.40;;
51558;SDS011;61650;48.882;2.092;2023-01-26T05:59:32;37.10;;;15.73;;
51558;SDS011;61650;48.882;2.092;2023-01-26T06:01:58;38.60;;;16.90;;
51558;SDS011;61650;48.882;2.092;2023-01-26T06:04:24;38.40;;;16.00;;
51558;SDS011;61650;48.882;2.092;2023-01-26T06:06:51;41.03;;;19.00;;
51558;SDS011;61650;48.882;2.092;2023-01-26T06:09:18;38.50;;;17.63;;
51558;SDS011;61650;48.882;2.092;2023-01-26T06:11:44;37.57;;;16.60;;
51558;SDS011;61650;48.882;2.092;2023-01-26T06:14:10;32.77;;;17.37;;
51558;SDS011;61650;48.882;2.092;2023-01-26T06:16:35;35.83;;;17.70;;
51558;SDS011;61650;48.882;2.092;2023-01-26T06:19:01;38.50;;;17.50;;
51558;SDS011;61650;48.882;2.092;2023-01-26T06:21:27;33.43;;;15.97;;
51558;SDS011;61650;48.882;2.092;2023-01-26T06:23:53;37.50;;;17.10;;
51558;SDS011;61650;48.882;2.092;2023-01-26T06:26:18;40.53;;;17.20;;
51558;SDS011;61650;48.882;2.092;2023-01-26T06:28:44;35.83;;;16.03;;
51558;SDS011;61650;48.882;2.092;2023-01-26T06:31:10;38.80;;;18.30;;
51558;SDS011;61650;48.882;2.092;2023-01-26T06:33:35;38.17;;;17.60;;
51558;SDS011;61650;48.882;2.092;2023-01-26T06:36:02;37.15;;;16.88;;
51558;SDS011;61650;48.882;2.092;2023-01-26T06:38:29;35.53;;;15.65;;
51558;SDS011;61650;48.882;2.092;2023-01-26T06:40:58;33.33;;;15.40;;
51558;SDS011;61650;48.882;2.092;2023-01-26T06:43:31;29.25;;;15.32;;
51558;SDS011;61650;48.882;2.092;2023-01-26T06:45:58;33.85;;;16.85;;
51558;SDS011;61650;48.882;2.092;2023-01-26T06:48:25;31.60;;;16.23;;
51558;SDS011;61650;48.882;2.092;2023-01-26T06:50:52;35.17;;;15.75;;
51558;SDS011;61650;48.882;2.092;2023-01-26T06:53:29;34.78;;;16.25;;
51558;SDS011;61650;48.882;2.092;2023-01-26T06:56:00;38.28;;;16.13;;
51558;SDS011;61650;48.882;2.092;2023-01-26T06:58:26;35.70;;;16.27;;
51558;SDS011;61650;48.882;2.092;2023-01-26T07:00:52;29.83;;;15.60;;
51558;SDS011;61650;48.882;2.092;2023-01-26T07:03:18;38.45;;;17.10;;
51558;SDS011;61650;48.882;2.092;2023-01-26T07:05:44;39.67;;;17.47;;
51558;SDS011;61650;48.882;2.092;2023-01-26T07:08:09;33.17;;;16.07;;
51558;SDS011;61650;48.882;2.092;2023-01-26T07:10:35;35.20;;;16.30;;
51558;SDS011;61650;48.882;2.092;2023-01-26T07:13:03;33.67;;;15.20;;
51558;SDS011;61650;48.882;2.092;2023-01-26T07:15:29;34.20;;;16.75;;
51558;SDS011;61650;48.882;2.092;2023-01-26T07:17:55;37.57;;;17.03;;
51558;SDS011;61650;48.882;2.092;2023-01-26T07:20:21;31.60;;;16.70;;
51558;SDS011;61650;48.882;2.092;2023-01-26T07:22:48;33.67;;;16.15;;
51558;SDS011;61650;48.882;2.092;2023-01-26T07:25:14;33.67;;;16.00;;
51558;SDS011;61650;48.882;2.092;2023-01-26T07:27:40;30.35;;;14.82;;
51558;SDS011;61650;48.882;2.092;2023-01-26T07:30:06;38.83;;;18.40;;
51558;SDS011;61650;48.882;2.092;2023-01-26T07:32:32;42.03;;;18.17;;
51558;SDS011;61650;48.882;2.092;2023-01-26T07:34:58;34.97;;;16.73;;
51558;SDS011;61650;48.882;2.092;2023-01-26T07:37:27;37.20;;;16.87;;
51558;SDS011;61650;48.882;2.092;2023-01-26T07:39:53;39.35;;;16.90;;
51558;SDS011;61650;48.882;2.092;2023-01-26T07:42:19;33.13;;;15.97;;
51558;SDS011;61650;48.882;2.092;2023-01-26T07:44:45;36.70;;;16.83;;
51558;SDS011;61650;48.882;2.092;2023-01-26T07:47:10;33.47;;;15.60;;
51558;SDS011;61650;48.882;2.092;2023-01-26T07:49:36;30.80;;;14.67;;
51558;SDS011;61650;48.882;2.092;2023-01-26T07:52:02;32.47;;;15.40;;
51558;SDS011;61650;48.882;2.092;2023-01-26T07:54:28;33.08;;;16.75;;
51558;SDS011;61650;48.882;2.092;2023-01-26T07:56:53;32.80;;;14.97;;
51558;SDS011;61650;48.882;2.092;2023-01-26T07:59:19;34.40;;;16.23;;
51558;SDS011;61650;48.882;2.092;2023-01-26T08:01:47;40.47;;;16.98;;
51558;SDS011;61650;48.882;2.092;2023-01-26T08:04:13;34.63;;;15.70;;
51558;SDS011;61650;48.882;2.092;2023-01-26T08:06:39;32.80;;;15.57;;
51558;SDS011;61650;48.882;2.092;2023-01-26T08:09:04;32.70;;;14.63;;
51558;SDS011;61650;48.882;2.092;2023-01-26T08:11:30;31.17;;;16.57;;
51558;SDS011;61650;48.882;2.092;2023-01-26T08:13:56;37.07;;;17.07;;
51558;SDS011;61650;48.882;2.092;2023-01-26T08:16:21;31.43;;;14.63;;
51558;SDS011;61650;48.882;2.092;2023-01-26T08:18:47;35.57;;;15.60;;
51558;SDS011;61650;48.882;2.092;2023-01-26T08:21:13;39.13;;;17.20;;
51558;SDS011;61650;48.882;2.092;2023-01-26T08:23:40;30.52;;;14.95;;
51558;SDS011;61650;48.882;2.092;2023-01-26T08:26:08;33.70;;;15.20;;
51558;SDS011;61650;48.882;2.092;2023-01-26T08:28:36;35.38;;;16.40;;
51558;SDS011;61650;48.882;2.092;2023-01-26T08:31:05;33.37;;;15.80;;
51558;SDS011;61650;48.882;2.092;2023-01-26T08:33:35;29.75;;;14.15;;
51558;SDS011;61650;48.882;2.092;2023-01-26T08:36:04;28.80;;;14.87;;
51558;SDS011;61650;48.882;2.092;2023-01-26T08:38:32;27.80;;;14.15;;
51558;SDS011;61650;48.882;2.092;2023-01-26T08:40:59;27.42;;;15.20;;
51558;SDS011;61650;48.882;2.092;2023-01-26T08:43:25;29.52;;;13.45;;
51558;SDS011;61650;48.882;2.092;2023-01-26T08:45:51;28.60;;;13.40;;
51558;SDS011;61650;48.882;2.092;2023-01-26T08:48:17;29.57;;;14.60;;
51558;SDS011;61650;48.882;2.092;2023-01-26T08:50:43;33.63;;;15.30;;
51558;SDS011;61650;48.882;2.092;2023-01-26T08:53:09;29.33;;;14.15;;
51558;SDS011;61650;48.882;2.092;2023-01-26T08:55:35;44.87;;;16.37;;
51558;SDS011;61650;48.882;2.092;2023-01-26T08:58:00;28.50;;;14.00;;
51558;SDS011;61650;48.882;2.092;2023-01-26T09:00:26;36.40;;;15.17;;
51558;SDS011;61650;48.882;2.092;2023-01-26T09:02:59;31.33;;;15.25;;
51558;SDS011;61650;48.882;2.092;2023-01-26T09:05:25;32.90;;;15.50;;
51558;SDS011;61650;48.882;2.092;2023-01-26T09:07:51;32.33;;;14.85;;
51558;SDS011;61650;48.882;2.092;2023-01-26T09:10:17;29.00;;;14.77;;
51558;SDS011;61650;48.882;2.092;2023-01-26T09:12:43;27.80;;;13.43;;
51558;SDS011;61650;48.882;2.092;2023-01-26T09:15:08;29.40;;;14.10;;
51558;SDS011;61650;48.882;2.092;2023-01-26T09:17:34;30.77;;;15.88;;
51558;SDS011;61650;48.882;2.092;2023-01-26T09:20:01;31.98;;;15.68;;
51558;SDS011;61650;48.882;2.092;2023-01-26T09:22:27;27.58;;;13.93;;
51558;SDS011;61650;48.882;2.092;2023-01-26T09:24:54;29.90;;;15.95;;
51558;SDS011;61650;48.882;2.092;2023-01-26T09:27:20;30.37;;;15.20;;
51558;SDS011;61650;48.882;2.092;2023-01-26T09:29:46;34.30;;;14.97;;
51558;SDS011;61650;48.882;2.092;2023-01-26T09:32:11;37.47;;;16.50;;
51558;SDS011;61650;48.882;2.092;2023-01-26T09:34:37;37.93;;;17.67;;
51558;SDS011;61650;48.882;2.092;2023-01-26T09:37:02;33.60;;;16.40;;
51558;SDS011;61650;48.882;2.092;2023-01-26T09:39:31;40.35;;;17.17;;
51558;SDS011;61650;48.882;2.092;2023-01-26T09:42:19;34.30;;;16.53;;
51558;SDS011;61650;48.882;2.092;2023-01-26T09:47:40;36.25;;;16.80;;
51558;SDS011;61650;48.882;2.092;2023-01-26T09:50:35;34.08;;;16.15;;
51558;SDS011;61650;48.882;2.092;2023-01-26T09:55:39;39.28;;;18.80;;
51558;SDS011;61650;48.882;2.092;2023-01-26T09:58:08;38.88;;;18.33;;
51558;SDS011;61650;48.882;2.092;2023-01-26T10:00:46;39.95;;;17.40;;
51558;SDS011;61650;48.882;2.092;2023-01-26T10:03:49;37.38;;;16.65;;
51558;SDS011;61650;48.882;2.092;2023-01-26T10:06:14;32.83;;;16.25;;
51558;SDS011;61650;48.882;2.092;2023-01-26T10:08:51;32.13;;;15.50;;
51558;SDS011;61650;48.882;2.092;2023-01-26T10:13:56;31.35;;;14.82;;
51558;SDS011;61650;48.882;2.092;2023-01-26T10:16:26;32.13;;;15.40;;
51558;SDS011;61650;48.882;2.092;2023-01-26T10:18:54;30.85;;;15.48;;
51558;SDS011;61650;48.882;2.092;2023-01-26T10:21:29;30.65;;;14.75;;
51558;SDS011;61650;48.882;2.092;2023-01-26T10:23:59;28.77;;;15.18;;
51558;SDS011;61650;48.882;2.092;2023-01-26T10:26:29;30.63;;;14.60;;
51558;SDS011;61650;48.882;2.092;2023-01-26T10:28:56;34.92;;;16.55;;
51558;SDS011;61650;48.882;2.092;2023-01-26T10:31:27;28.42;;;13.63;;
51558;SDS011;61650;48.882;2.092;2023-01-26T10:34:16;28.33;;;15.30;;
51558;SDS011;61650;48.882;2.092;2023-01-26T10:36:46;29.20;;;15.02;;
51558;SDS011;61650;48.882;2.092;2023-01-26T10:39:13;30.50;;;15.53;;
51558;SDS011;61650;48.882;2.092;2023-01-26T10:41:40;28.05;;;14.60;;
51558;SDS011;61650;48.882;2.092;2023-01-26T10:44:30;30.80;;;15.35;;
51558;SDS011;61650;48.882;2.092;2023-01-26T10:47:02;31.77;;;14.90;;
51558;SDS011;61650;48.882;2.092;2023-01-26T10:49:29;29.45;;;15.43;;
51558;SDS011;61650;48.882;2.092;2023-01-26T10:52:05;31.57;;;14.87;;
51558;SDS011;61650;48.882;2.092;2023-01-26T10:54:42;25.98;;;13.95;;
51558;SDS011;61650;48.882;2.092;2023-01-26T11:00:02;32.20;;;15.85;;
51558;SDS011;61650;48.882;2.092;2023-01-26T11:02:34;30.42;;;15.63;;
51558;SDS011;61650;48.882;2.092;2023-01-26T11:07:27;25.67;;;13.70;;
51558;SDS011;61650;48.882;2.092;2023-01-26T11:09:55;31.02;;;15.07;;
51558;SDS011;61650;48.882;2.092;2023-01-26T11:12:23;45.13;;;23.00;;
51558;SDS011;61650;48.882;2.092;2023-01-26T11:15:03;34.63;;;19.77;;
51558;SDS011;61650;48.882;2.092;2023-01-26T11:17:35;30.70;;;15.13;;
51558;SDS011;61650;48.882;2.092;2023-01-26T11:25:35;30.52;;;15.50;;
51558;SDS011;61650;48.882;2.092;2023-01-26T11:41:43;30.40;;;14.63;;
51558;SDS011;61650;48.882;2.092;2023-01-26T11:44:36;25.67;;;14.00;;
51558;SDS011;61650;48.882;2.092;2023-01-26T11:58:40;20.45;;;11.85;;
51558;SDS011;61650;48.882;2.092;2023-01-26T12:01:15;20.05;;;11.45;;
51558;SDS011;61650;48.882;2.092;2023-01-26T12:03:47;21.95;;;11.20;;
51558;SDS011;61650;48.882;2.092;2023-01-26T12:06:15;23.33;;;10.95;;
51558;SDS011;61650;48.882;2.092;2023-01-26T12:09:05;19.08;;;10.93;;
51558;SDS011;61650;48.882;2.092;2023-01-26T12:14:37;19.67;;;11.40;;
51558;SDS011;61650;48.882;2.092;2023-01-26T12:25:35;22.25;;;11.73;;
51558;SDS011;61650;48.882;2.092;2023-01-26T12:33:59;18.83;;;11.23;;
51558;SDS011;61650;48.882;2.092;2023-01-26T12:36:38;16.57;;;9.07;;
51558;SDS011;61650;48.882;2.092;2023-01-26T12:42:16;16.90;;;9.68;;
51558;SDS011;61650;48.882;2.092;2023-01-26T12:44:52;17.05;;;10.30;;
51558;SDS011;61650;48.882;2.092;2023-01-26T12:53:09;15.15;;;8.43;;
51558;SDS011;61650;48.882;2.092;2023-01-26T12:55:51;17.70;;;9.73;;
51558;SDS011;61650;48.882;2.092;2023-01-26T13:01:17;13.63;;;8.75;;
51558;SDS011;61650;48.882;2.092;2023-01-26T13:06:20;13.52;;;9.43;;
51558;SDS011;61650;48.882;2.092;2023-01-26T13:24:42;14.00;;;9.18;;
51558;SDS011;61650;48.882;2.092;2023-01-26T13:27:27;15.25;;;8.43;;
51558;SDS011;61650;48.882;2.092;2023-01-26T13:29:59;15.48;;;8.98;;
51558;SDS011;61650;48.882;2.092;2023-01-26T13:34:57;15.07;;;9.47;;
51558;SDS011;61650;48.882;2.092;2023-01-26T13:40:02;15.05;;;8.93;;
51558;SDS011;61650;48.882;2.092;2023-01-26T13:42:37;16.27;;;10.38;;
51558;SDS011;61650;48.882;2.092;2023-01-26T13:45:30;16.50;;;9.85;;
51558;SDS011;61650;48.882;2.092;2023-01-26T13:48:20;15.93;;;9.80;;
51558;SDS011;61650;48.882;2.092;2023-01-26T13:51:12;12.60;;;8.90;;
51558;SDS011;61650;48.882;2.092;2023-01-26T13:53:54;17.65;;;9.73;;
51558;SDS011;61650;48.882;2.092;2023-01-26T13:59:15;17.52;;;10.32;;
51558;SDS011;61650;48.882;2.092;2023-01-26T14:01:44;16.38;;;9.80;;
51558;SDS011;61650;48.882;2.092;2023-01-26T14:06:45;18.20;;;9.50;;
51558;SDS011;61650;48.882;2.092;2023-01-26T14:09:15;16.55;;;10.88;;
51558;SDS011;61650;48.882;2.092;2023-01-26T14:11:41;15.35;;;9.90;;
51558;SDS011;61650;48.882;2.092;2023-01-26T14:14:22;15.25;;;9.82;;
51558;SDS011;61650;48.882;2.092;2023-01-26T14:16:53;15.80;;;9.95;;
51558;SDS011;61650;48.882;2.092;2023-01-26T14:19:21;13.55;;;10.10;;
51558;SDS011;61650;48.882;2.092;2023-01-26T14:21:52;16.33;;;11.30;;
51558;SDS011;61650;48.882;2.092;2023-01-26T14:24:18;13.00;;;9.75;;
51558;SDS011;61650;48.882;2.092;2023-01-26T14:26:59;14.90;;;10.38;;
51558;SDS011;61650;48.882;2.092;2023-01-26T14:29:27;15.23;;;9.52;;
51558;SDS011;61650;48.882;2.092;2023-01-26T14:31:54;15.20;;;9.80;;
51558;SDS011;61650;48.882;2.092;2023-01-26T14:34:23;14.65;;;10.35;;
51558;SDS011;61650;48.882;2.092;2023-01-26T14:37:12;13.50;;;9.38;;
51558;SDS011;61650;48.882;2.092;2023-01-26T14:39:39;10.57;;;8.68;;
51558;SDS011;61650;48.882;2.092;2023-01-26T14:42:09;15.35;;;10.00;;
51558;SDS011;61650;48.882;2.092;2023-01-26T14:44:38;13.38;;;8.95;;
51558;SDS011;61650;48.882;2.092;2023-01-26T14:52:35;11.63;;;7.33;;
51558;SDS011;61650;48.882;2.092;2023-01-26T14:55:04;13.57;;;8.43;;
51558;SDS011;61650;48.882;2.092;2023-01-26T14:57:36;10.90;;;9.00;;
51558;SDS011;61650;48.882;2.092;2023-01-26T15:00:03;14.23;;;9.45;;
51558;SDS011;61650;48.882;2.092;2023-01-26T15:02:37;13.27;;;8.95;;
51558;SDS011;61650;48.882;2.092;2023-01-26T15:05:09;9.73;;;7.32;;
51558;SDS011;61650;48.882;2.092;2023-01-26T15:07:44;11.90;;;7.60;;
51558;SDS011;61650;48.882;2.092;2023-01-26T15:10:25;9.65;;;7.00;;
51558;SDS011;61650;48.882;2.092;2023-01-26T15:15:32;10.02;;;7.10;;
51558;SDS011;61650;48.882;2.092;2023-01-26T15:18:00;10.32;;;7.97;;
51558;SDS011;61650;48.882;2.092;2023-01-26T15:22:52;10.33;;;8.07;;
51558;SDS011;61650;48.882;2.092;2023-01-26T15:25:19;9.73;;;7.45;;
51558;SDS011;61650;48.882;2.092;2023-01-26T15:27:50;10.48;;;7.63;;
51558;SDS011;61650;48.882;2.092;2023-01-26T15:30:20;10.20;;;8.25;;
51558;SDS011;61650;48.882;2.092;2023-01-26T15:32:58;8.70;;;7.30;;
51558;SDS011;61650;48.882;2.092;2023-01-26T15:35:31;9.23;;;7.23;;
51558;SDS011;61650;48.882;2.092;2023-01-26T15:38:08;9.73;;;7.68;;
51558;SDS011;61650;48.882;2.092;2023-01-26T15:40:37;10.80;;;7.85;;
51558;SDS011;61650;48.882;2.092;2023-01-26T15:45:39;12.48;;;8.00;;
51558;SDS011;61650;48.882;2.092;2023-01-26T15:48:07;11.63;;;8.65;;
51558;SDS011;61650;48.882;2.092;2023-01-26T15:50:33;11.65;;;8.18;;
51558;SDS011;61650;48.882;2.092;2023-01-26T15:52:59;12.97;;;8.57;;
51558;SDS011;61650;48.882;2.092;2023-01-26T15:55:28;12.10;;;8.70;;
51558;SDS011;61650;48.882;2.092;2023-01-26T15:57:56;12.73;;;9.50;;
51558;SDS011;61650;48.882;2.092;2023-01-26T16:00:21;13.63;;;8.80;;
51558;SDS011;61650;48.882;2.092;2023-01-26T16:02:47;14.20;;;9.60;;
51558;SDS011;61650;48.882;2.092;2023-01-26T16:05:17;12.57;;;9.60;;
51558;SDS011;61650;48.882;2.092;2023-01-26T16:07:48;12.75;;;10.13;;
51558;SDS011;61650;48.882;2.092;2023-01-26T16:10:14;14.80;;;9.10;;
51558;SDS011;61650;48.882;2.092;2023-01-26T16:12:42;14.60;;;10.40;;
51558;SDS011;61650;48.882;2.092;2023-01-26T16:18:10;15.45;;;8.15;;
51558;SDS011;61650;48.882;2.092;2023-01-26T16:20:40;13.48;;;8.50;;
51558;SDS011;61650;48.882;2.092;2023-01-26T16:23:18;12.05;;;8.77;;
51558;SDS011;61650;48.882;2.092;2023-01-26T16:25:46;13.93;;;8.98;;
51558;SDS011;61650;48.882;2.092;2023-01-26T16:28:12;13.00;;;7.88;;
51558;SDS011;61650;48.882;2.092;2023-01-26T16:30:39;19.00;;;8.75;;
51558;SDS011;61650;48.882;2.092;2023-01-26T16:33:12;18.75;;;10.05;;
51558;SDS011;61650;48.882;2.092;2023-01-26T16:35:40;14.02;;;8.77;;
51558;SDS011;61650;48.882;2.092;2023-01-26T16:38:06;16.27;;;7.30;;
51558;SDS011;61650;48.882;2.092;2023-01-26T16:40:41;12.73;;;8.18;;
51558;SDS011;61650;48.882;2.092;2023-01-26T16:43:18;11.77;;;7.60;;